Time;durP1;ratioP1;P1;durP2;ratioP2;P2;SDS_P1;SDS_P2;PMS_P1;PMS_P2;Temp;Humidity;BMP_temperature;BMP_pressure;BME280_temperature;BME280_humidity;BME280_pressure;Samples;Min_cycle;Max_cycle;Signal;HPM_P1;HPM_P2
2021/08/13 02:47:54;;;;;;;18.63;9.43;;;20.60;95.80;;;;;;4746736;30;20318;-80
2021/08/13 02:50:25;;;;;;;15.30;10.18;;;20.60;95.90;;;;;;4734849;30;20217;-80
2021/08/13 02:52:55;;;;;;;16.52;9.63;;;20.60;96.10;;;;;;4735174;30;20346;-80
2021/08/13 02:55:25;;;;;;;16.02;10.20;;;20.60;96.00;;;;;;4744285;30;20070;-80
2021/08/13 02:57:58;;;;;;;14.13;9.85;;;20.60;96.00;;;;;;4737449;30;20024;-80
2021/08/13 03:00:25;;;;;;;15.77;9.40;;;20.60;96.00;;;;;;4750145;30;20326;-80
2021/08/13 03:02:53;;;;;;;14.52;10.25;;;20.50;96.10;;;;;;4735854;30;20036;-80
2021/08/13 03:05:22;;;;;;;16.08;9.85;;;20.50;96.10;;;;;;4736596;30;20048;-80
2021/08/13 03:07:53;;;;;;;12.40;10.02;;;20.50;96.10;;;;;;4736403;30;20111;-80
2021/08/13 03:10:20;;;;;;;13.18;9.38;;;20.50;96.20;;;;;;4750666;30;20036;-80
2021/08/13 03:12:48;;;;;;;16.00;9.45;;;20.50;96.10;;;;;;4750931;30;20028;-80
2021/08/13 03:15:15;;;;;;;16.35;9.45;;;20.50;96.00;;;;;;4736108;30;20036;-81
2021/08/13 03:17:42;;;;;;;20.33;11.05;;;20.50;96.20;;;;;;4750632;30;20024;-80
2021/08/13 03:20:09;;;;;;;14.35;8.93;;;20.50;96.20;;;;;;4735204;30;20044;-80
2021/08/13 03:22:43;;;;;;;14.32;8.85;;;20.40;96.20;;;;;;4737139;30;20062;-80
2021/08/13 03:25:10;;;;;;;16.02;9.18;;;20.40;95.90;;;;;;4735992;30;20032;-80
2021/08/13 03:27:39;;;;;;;;;;;20.40;95.80;;;;;;4751383;30;20060;-80
2021/08/13 03:30:05;;;;;;;15.23;9.18;;;20.40;95.70;;;;;;4737339;30;19910;-80
2021/08/13 03:32:33;;;;;;;12.07;9.55;;;20.40;96.00;;;;;;4752428;30;20028;-80
2021/08/13 03:35:00;;;;;;;15.50;9.65;;;20.40;96.10;;;;;;4738834;30;20074;-80
2021/08/13 03:37:29;;;;;;;13.70;8.52;;;20.30;96.10;;;;;;4752568;30;20046;-80
2021/08/13 03:39:55;;;;;;;13.18;8.77;;;20.30;96.10;;;;;;4751412;30;20082;-80
2021/08/13 03:42:20;;;;;;;14.77;8.95;;;20.30;96.30;;;;;;4751843;30;20358;-80
2021/08/13 03:44:47;;;;;;;11.85;8.25;;;20.30;96.30;;;;;;4737417;30;20064;-80
2021/08/13 03:47:13;;;;;;;11.30;7.95;;;20.30;96.20;;;;;;4744831;30;20059;-80
2021/08/13 03:49:39;;;;;;;13.00;8.73;;;20.30;96.10;;;;;;4720493;30;20041;-80
2021/08/13 03:52:04;;;;;;;13.05;8.88;;;20.30;96.00;;;;;;4734612;30;20059;-80
2021/08/13 03:54:31;;;;;;;12.77;9.60;;;20.30;96.10;;;;;;4719919;30;20031;-80
2021/08/13 03:56:57;;;;;;;16.67;9.10;;;20.20;96.30;;;;;;4748473;30;20032;-80
2021/08/13 03:59:24;;;;;;;12.07;8.23;;;20.20;96.40;;;;;;4734307;30;20339;-80
2021/08/13 04:01:50;;;;;;;11.90;8.07;;;20.20;96.30;;;;;;4734293;30;20040;-80
2021/08/13 04:04:16;;;;;;;13.38;8.63;;;20.20;96.40;;;;;;4748611;30;20120;-80
2021/08/13 04:06:42;;;;;;;27.23;9.77;;;20.20;96.40;;;;;;4748147;30;20095;-80
2021/08/13 04:09:08;;;;;;;13.00;8.57;;;20.20;96.40;;;;;;4718679;30;20044;-81
2021/08/13 04:11:34;;;;;;;13.93;8.77;;;20.20;96.80;;;;;;4733857;30;20039;-80
2021/08/13 04:14:01;;;;;;;13.45;8.20;;;20.20;96.60;;;;;;4718369;30;20029;-80
2021/08/13 04:16:27;;;;;;;14.45;8.77;;;20.20;96.60;;;;;;4718782;30;20043;-80
2021/08/13 04:18:55;;;;;;;15.32;9.35;;;20.20;96.60;;;;;;4733219;30;20386;-80
2021/08/13 04:21:23;;;;;;;15.70;9.38;;;20.20;96.60;;;;;;4747734;30;20088;-80
2021/08/13 04:23:49;;;;;;;13.18;9.20;;;20.20;96.60;;;;;;4732050;30;20031;-80
2021/08/13 04:26:14;;;;;;;15.73;9.65;;;20.20;96.70;;;;;;4732638;30;20201;-80
2021/08/13 04:28:41;;;;;;;13.98;9.93;;;20.20;96.60;;;;;;4732263;30;20028;-80
2021/08/13 04:31:07;;;;;;;16.33;9.73;;;20.20;96.80;;;;;;4747675;30;20049;-80
2021/08/13 04:33:34;;;;;;;18.85;9.55;;;20.20;96.70;;;;;;4732992;30;20029;-80
2021/08/13 04:36:06;;;;;;;14.60;9.75;;;20.30;96.70;;;;;;4719551;30;20100;-80
2021/08/13 04:38:33;;;;;;;15.00;9.17;;;20.30;96.70;;;;;;4733500;30;20590;-80
2021/08/13 04:40:59;;;;;;;23.02;9.30;;;20.40;96.70;;;;;;4732557;30;20036;-80
2021/08/13 04:43:25;;;;;;;17.80;9.43;;;20.40;96.40;;;;;;4732668;30;20033;-80
2021/08/13 04:45:50;;;;;;;15.52;8.80;;;20.50;96.40;;;;;;4733683;30;20082;-80
2021/08/13 04:48:16;;;;;;;14.38;9.35;;;20.60;96.40;;;;;;4716984;30;20314;-80
2021/08/13 04:50:42;;;;;;;16.55;9.00;;;20.60;96.20;;;;;;4716482;30;20066;-80
2021/08/13 04:53:09;;;;;;;14.68;9.02;;;20.70;96.20;;;;;;4732982;30;20028;-80
2021/08/13 04:55:35;;;;;;;16.93;8.50;;;20.80;96.40;;;;;;4731610;30;20040;-80
2021/08/13 04:58:01;;;;;;;15.70;8.73;;;20.80;95.90;;;;;;4718020;30;20024;-80
2021/08/13 05:00:28;;;;;;;16.02;8.88;;;21.00;95.80;;;;;;4743212;30;20044;-80
2021/08/13 05:03:07;;;;;;;16.55;9.13;;;21.10;95.80;;;;;;4748501;30;20036;-80
2021/08/13 05:05:37;;;;;;;14.77;7.88;;;21.20;95.50;;;;;;4734567;30;20266;-80
2021/08/13 05:08:04;;;;;;;14.77;8.57;;;21.40;95.40;;;;;;4726624;30;20055;-80
2021/08/13 05:10:30;;;;;;;15.82;8.40;;;21.50;95.20;;;;;;4728912;30;20040;-80
2021/08/13 05:12:56;;;;;;;17.40;8.02;;;21.60;94.90;;;;;;4752081;30;20028;-80
2021/08/13 05:15:22;;;;;;;21.25;8.10;;;21.70;94.60;;;;;;4743832;30;20219;-80
2021/08/13 05:17:49;;;;;;;14.23;8.45;;;21.80;93.80;;;;;;4734132;30;20156;-80
2021/08/13 05:20:17;;;;;;;16.52;8.00;;;21.90;93.70;;;;;;4732542;30;20028;-80
2021/08/13 05:22:49;;;;;;;15.88;9.20;;;22.00;93.60;;;;;;4763899;30;20032;-81
2021/08/13 05:25:15;;;;;;;17.38;7.05;;;22.10;93.40;;;;;;4741521;30;20039;-81
2021/08/13 05:27:41;;;;;;;13.00;7.73;;;22.20;93.10;;;;;;4717154;30;20220;-81
2021/08/13 05:30:10;;;;;;;15.77;8.02;;;22.30;92.70;;;;;;4723855;30;20294;-81
2021/08/13 05:32:40;;;;;;;12.95;8.68;;;22.40;92.10;;;;;;4727434;30;20087;-81
2021/08/13 05:35:06;;;;;;;;;;;22.50;91.80;;;;;;4734382;30;20033;-80
2021/08/13 05:37:32;;;;;;;16.55;8.25;;;22.50;91.40;;;;;;4741759;30;19933;-80
2021/08/13 05:39:58;;;;;;;14.40;8.38;;;22.60;91.40;;;;;;4743677;30;20036;-80
2021/08/13 05:42:24;;;;;;;18.92;7.20;;;22.60;90.70;;;;;;4736826;30;20036;-81
2021/08/13 05:44:50;;;;;;;13.03;7.40;;;22.70;90.70;;;;;;4737540;30;20275;-81
2021/08/13 05:47:16;;;;;;;14.82;7.10;;;22.80;90.20;;;;;;4721916;30;20284;-81
2021/08/13 05:49:42;;;;;;;17.25;6.07;;;22.90;90.10;;;;;;4731948;30;20032;-81
2021/08/13 05:52:08;;;;;;;12.35;7.00;;;23.00;89.50;;;;;;4717747;30;20029;-82
2021/08/13 05:54:37;;;;;;;9.50;6.03;;;23.10;88.20;;;;;;4717681;30;20151;-82
2021/08/13 05:57:04;;;;;;;15.13;5.90;;;23.20;87.50;;;;;;4715821;30;20033;-82
2021/08/13 05:59:29;;;;;;;11.73;6.22;;;23.30;85.90;;;;;;4715979;30;20033;-82
2021/08/13 06:01:55;;;;;;;13.73;6.18;;;23.30;86.30;;;;;;4731533;30;20112;-82
2021/08/13 06:04:21;;;;;;;9.55;5.88;;;23.30;84.10;;;;;;4719277;30;20405;-82
2021/08/13 06:06:47;;;;;;;10.40;5.50;;;23.40;84.00;;;;;;4749403;30;20118;-82
2021/08/13 06:09:14;;;;;;;16.40;7.15;;;23.50;84.50;;;;;;4720235;30;20088;-83
2021/08/13 06:11:41;;;;;;;10.57;5.63;;;23.60;83.70;;;;;;4749413;30;20109;-82
2021/08/13 06:14:07;;;;;;;13.48;5.93;;;23.70;82.80;;;;;;4734241;30;20029;-82
2021/08/13 06:16:33;;;;;;;16.77;5.68;;;23.80;82.30;;;;;;4726658;30;20099;-82
2021/08/13 06:19:00;;;;;;;14.65;6.28;;;23.90;81.80;;;;;;4764207;30;20024;-82
2021/08/13 06:21:28;;;;;;;;;;;24.10;81.50;;;;;;4749899;30;20032;-82
2021/08/13 06:23:54;;;;;;;15.95;6.57;;;24.30;79.80;;;;;;4736430;30;19910;-82
2021/08/13 06:26:20;;;;;;;15.05;6.20;;;24.50;79.30;;;;;;4728935;30;20024;-82
2021/08/13 06:28:48;;;;;;;9.20;5.40;;;24.80;80.30;;;;;;4740847;30;20324;-82
2021/08/13 06:31:14;;;;;;;7.55;4.80;;;25.00;78.90;;;;;;4748825;30;20036;-82
2021/08/13 06:33:41;;;;;;;11.25;5.60;;;25.20;77.80;;;;;;4758767;30;20029;-84
2021/08/13 06:36:07;;;;;;;10.20;5.30;;;25.40;76.50;;;;;;4748674;30;20095;-84
2021/08/13 06:38:36;;;;;;;11.52;4.93;;;25.60;75.70;;;;;;4738069;30;20323;-81
2021/08/13 06:41:02;;;;;;;10.37;5.57;;;25.70;76.20;;;;;;4746068;30;20031;-81
2021/08/13 06:43:28;;;;;;;12.10;4.95;;;25.80;75.00;;;;;;4761269;30;20128;-81
2021/08/13 06:45:56;;;;;;;6.97;4.97;;;26.00;75.20;;;;;;4763915;30;20048;-81
2021/08/13 06:48:29;;;;;;;15.52;5.68;;;26.20;73.80;;;;;;4720475;30;20116;-81
2021/08/13 06:50:55;;;;;;;11.25;5.65;;;26.20;72.50;;;;;;4734910;30;20121;-82
2021/08/13 06:53:23;;;;;;;13.77;5.10;;;26.10;72.60;;;;;;4733305;30;20024;-82
2021/08/13 06:55:50;;;;;;;7.88;5.35;;;26.10;72.10;;;;;;4733689;30;20283;-82
2021/08/13 06:58:16;;;;;;;15.20;6.38;;;26.10;74.00;;;;;;4721020;30;20036;-82
2021/08/13 07:00:42;;;;;;;8.48;5.50;;;26.20;71.70;;;;;;4733275;30;20060;-82
2021/08/13 07:03:09;;;;;;;12.68;6.53;;;26.30;72.00;;;;;;4735935;30;20028;-82
2021/08/13 07:05:34;;;;;;;14.05;6.07;;;26.20;70.40;;;;;;4733435;30;20047;-76
2021/08/13 07:08:11;;;;;;;8.07;5.67;;;26.20;70.80;;;;;;4730745;30;20031;-78
2021/08/13 07:10:42;;;;;;;21.13;6.78;;;26.30;71.30;;;;;;4720280;30;20037;-80
2021/08/13 07:13:07;;;;;;;14.20;5.72;;;26.30;72.50;;;;;;4730579;30;20102;-80
2021/08/13 07:15:34;;;;;;;16.65;5.68;;;26.50;72.20;;;;;;4732287;30;20255;-80
2021/08/13 07:18:00;;;;;;;15.55;5.93;;;26.60;73.00;;;;;;4731804;30;20085;-80
2021/08/13 07:20:27;;;;;;;15.93;5.93;;;26.80;70.70;;;;;;4746802;30;20033;-80
2021/08/13 07:22:53;;;;;;;7.50;5.47;;;26.90;70.90;;;;;;4732799;30;20040;-80
2021/08/13 07:25:19;;;;;;;20.63;5.47;;;27.00;70.50;;;;;;4749396;30;20063;-80
2021/08/13 07:27:45;;;;;;;10.25;5.72;;;27.10;71.20;;;;;;4734531;30;20043;-80
2021/08/13 07:30:12;;;;;;;21.17;5.83;;;27.10;68.70;;;;;;4729234;30;20255;-81
2021/08/13 07:32:39;;;;;;;19.60;6.55;;;27.10;69.50;;;;;;4759323;30;20271;-80
2021/08/13 07:35:05;;;;;;;15.10;5.88;;;27.00;69.50;;;;;;4748727;30;20039;-81
2021/08/13 07:37:39;;;;;;;13.65;6.20;;;26.90;70.80;;;;;;4735534;30;20025;-80
2021/08/13 07:40:06;;;;;;;9.35;5.43;;;27.00;68.50;;;;;;4717030;30;20036;-80
2021/08/13 07:42:34;;;;;;;;;;;27.00;68.60;;;;;;4717350;30;20044;-80
2021/08/13 07:45:00;;;;;;;20.60;5.63;;;26.90;67.70;;;;;;4746286;30;19917;-80
2021/08/13 07:47:26;;;;;;;11.85;6.07;;;26.90;69.80;;;;;;4731122;30;20374;-80
2021/08/13 07:49:53;;;;;;;15.68;6.18;;;27.10;69.50;;;;;;4745636;30;20047;-80
2021/08/13 07:52:19;;;;;;;15.40;5.87;;;27.40;70.30;;;;;;4758254;30;20035;-80
2021/08/13 07:54:45;;;;;;;14.80;5.10;;;27.60;68.80;;;;;;4734314;30;20088;-81
2021/08/13 07:57:12;;;;;;;11.88;6.07;;;27.80;67.60;;;;;;4763610;30;20129;-80
2021/08/13 07:59:37;;;;;;;12.63;5.63;;;27.90;66.60;;;;;;4763670;30;20040;-80
2021/08/13 08:02:05;;;;;;;13.10;5.88;;;27.70;65.80;;;;;;4748675;30;20226;-81
2021/08/13 08:04:32;;;;;;;11.52;5.47;;;27.60;67.20;;;;;;4748948;30;20044;-81
2021/08/13 08:06:58;;;;;;;13.88;6.20;;;27.50;67.60;;;;;;4748840;30;20094;-80
2021/08/13 08:09:24;;;;;;;12.85;6.35;;;27.60;67.60;;;;;;4748570;30;20084;-81
2021/08/13 08:11:51;;;;;;;12.45;6.60;;;27.70;66.50;;;;;;4764843;30;20082;-80
2021/08/13 08:14:17;;;;;;;13.32;6.05;;;27.80;66.60;;;;;;4764419;30;20071;-80
2021/08/13 08:16:42;;;;;;;14.65;5.85;;;27.80;66.20;;;;;;4748043;30;20028;-81
2021/08/13 08:19:09;;;;;;;14.40;6.13;;;27.80;66.10;;;;;;4748487;30;20089;-81
2021/08/13 08:21:34;;;;;;;12.47;6.27;;;27.90;67.70;;;;;;4748298;30;20115;-81
2021/08/13 08:24:00;;;;;;;13.32;6.13;;;27.90;66.60;;;;;;4748029;30;20109;-80
2021/08/13 08:26:26;;;;;;;10.38;5.60;;;28.00;67.40;;;;;;4748248;30;20054;-80
2021/08/13 08:28:52;;;;;;;10.60;5.97;;;28.20;69.50;;;;;;4757737;30;20091;-80
2021/08/13 08:31:18;;;;;;;16.23;6.07;;;28.30;66.60;;;;;;4748277;30;20231;-80
2021/08/13 08:33:43;;;;;;;12.77;6.05;;;28.60;66.50;;;;;;4748401;30;20044;-80
2021/08/13 08:36:09;;;;;;;8.43;5.60;;;28.80;64.90;;;;;;4748279;30;20040;-79
2021/08/13 08:38:35;;;;;;;10.65;6.07;;;28.90;65.50;;;;;;4762114;30;20048;-80
2021/08/13 08:41:03;;;;;;;11.40;6.23;;;29.10;64.50;;;;;;4748230;30;20224;-80
2021/08/13 08:43:29;;;;;;;11.38;5.70;;;29.10;62.80;;;;;;4763959;30;20052;-81
2021/08/13 08:45:55;;;;;;;16.10;6.50;;;29.10;64.00;;;;;;4747869;30;20052;-80
2021/08/13 08:48:22;;;;;;;20.15;6.63;;;29.10;63.90;;;;;;4747942;30;20036;-80
2021/08/13 08:50:48;;;;;;;16.98;6.75;;;29.00;63.10;;;;;;4747937;30;20055;-80
2021/08/13 08:53:21;;;;;;;11.82;5.75;;;29.10;62.40;;;;;;4747984;30;20097;-80
2021/08/13 08:55:47;;;;;;;14.57;6.00;;;29.00;64.00;;;;;;4763946;30;20079;-80
2021/08/13 08:58:13;;;;;;;17.83;6.97;;;29.20;62.70;;;;;;4763762;30;20040;-81
2021/08/13 09:00:39;;;;;;;10.90;5.57;;;29.30;63.20;;;;;;4763526;30;20101;-80
2021/08/13 09:03:06;;;;;;;22.43;7.03;;;29.50;64.30;;;;;;4764801;30;20055;-81
2021/08/13 09:05:31;;;;;;;;;;;29.60;60.80;;;;;;4748275;30;20107;-81
2021/08/13 09:07:57;;;;;;;17.20;7.70;;;29.70;61.50;;;;;;4748028;30;19910;-81
2021/08/13 09:10:23;;;;;;;11.50;6.63;;;29.60;59.90;;;;;;4747933;30;20220;-81
2021/08/13 09:12:51;;;;;;;15.47;6.50;;;29.50;62.80;;;;;;4763764;30;20043;-81
2021/08/13 09:15:36;;;;;;;14.10;6.47;;;29.50;62.30;;;;;;4763569;30;20057;-83
2021/08/13 09:18:18;;;;;;;14.45;6.55;;;29.50;61.30;;;;;;4763606;30;20099;-83
2021/08/13 09:20:53;;;;;;;16.08;6.75;;;29.60;62.30;;;;;;4748420;30;20123;-84
2021/08/13 09:23:32;;;;;;;15.05;6.57;;;29.90;63.70;;;;;;4748866;30;20040;-84
2021/08/13 09:26:00;;;;;;;17.52;6.03;;;30.10;62.10;;;;;;4749086;30;20044;-83
2021/08/13 09:28:49;;;;;;;9.70;6.85;;;30.30;59.90;;;;;;4750579;30;20047;-83
2021/08/13 09:31:30;;;;;;;11.80;6.07;;;30.20;60.00;;;;;;4747953;30;20067;-83
2021/08/13 09:34:25;;;;;;;19.88;6.65;;;30.20;58.90;;;;;;4733033;30;20032;-83
2021/08/13 09:36:51;;;;;;;12.85;5.65;;;30.40;60.80;;;;;;4762689;30;20047;-83
2021/08/13 09:39:22;;;;;;;14.07;5.73;;;30.50;61.00;;;;;;4747352;30;20032;-83
2021/08/13 09:41:54;;;;;;;15.50;6.43;;;30.60;58.80;;;;;;4733277;30;20345;-83
2021/08/13 09:44:33;;;;;;;11.13;6.30;;;30.50;59.30;;;;;;4732671;30;20032;-83
2021/08/13 09:47:03;;;;;;;14.35;6.63;;;30.50;59.90;;;;;;4710702;30;20099;-83
2021/08/13 09:49:32;;;;;;;17.33;6.47;;;30.60;59.80;;;;;;4698528;30;20267;-83
2021/08/13 09:52:10;;;;;;;21.05;6.95;;;30.50;57.80;;;;;;4713026;30;20112;-83
2021/08/13 09:54:36;;;;;;;14.02;6.30;;;30.40;59.30;;;;;;4706670;30;20060;-83
2021/08/13 09:57:13;;;;;;;14.40;6.00;;;30.30;58.90;;;;;;4697982;30;20075;-83
2021/08/13 10:00:03;;;;;;;11.95;6.32;;;30.40;59.50;;;;;;4697959;30;20086;-83
2021/08/13 10:02:38;;;;;;;13.88;6.75;;;30.60;59.70;;;;;;4713201;30;20037;-84
2021/08/13 10:05:18;;;;;;;10.75;6.78;;;30.90;59.50;;;;;;4698566;30;20041;-84
2021/08/13 10:07:48;;;;;;;16.58;7.57;;;31.20;57.50;;;;;;4698032;30;20029;-84
2021/08/13 10:10:15;;;;;;;10.80;5.70;;;31.30;57.90;;;;;;4698372;30;20028;-84
2021/08/13 10:12:43;;;;;;;16.55;6.22;;;31.30;57.70;;;;;;4698332;30;20033;-84
2021/08/13 10:15:10;;;;;;;19.40;6.15;;;31.30;58.70;;;;;;4699261;30;20096;-84
2021/08/13 10:17:37;;;;;;;15.98;6.53;;;31.30;57.70;;;;;;4743356;30;20033;-84
2021/08/13 10:20:08;;;;;;;15.23;6.40;;;31.50;58.90;;;;;;4716950;30;20029;-84
2021/08/13 10:22:37;;;;;;;24.88;7.30;;;31.30;57.20;;;;;;4730858;30;20043;-84
2021/08/13 10:25:03;;;;;;;12.27;6.32;;;31.30;58.10;;;;;;4731220;30;20321;-84
2021/08/13 10:27:31;;;;;;;15.70;6.55;;;31.10;57.60;;;;;;4732088;30;20032;-84
2021/08/13 10:30:03;;;;;;;10.95;5.88;;;31.30;56.30;;;;;;4731450;30;20070;-84
2021/08/13 10:32:36;;;;;;;10.23;5.75;;;31.50;56.80;;;;;;4731506;30;20108;-84
2021/08/13 10:35:04;;;;;;;19.30;6.90;;;31.80;56.80;;;;;;4731398;30;20032;-84
2021/08/13 10:37:30;;;;;;;8.25;6.00;;;32.00;56.80;;;;;;4724125;30;20272;-84
2021/08/13 10:39:56;;;;;;;10.10;5.85;;;32.00;57.00;;;;;;4714471;30;20037;-85
2021/08/13 10:42:25;;;;;;;12.97;6.77;;;32.10;57.20;;;;;;4730317;30;20271;-81
2021/08/13 10:44:58;;;;;;;12.10;6.35;;;32.30;55.50;;;;;;4730036;30;20032;-80
2021/08/13 10:47:30;;;;;;;14.18;7.50;;;32.30;55.70;;;;;;4713035;30;20060;-82
2021/08/13 10:49:58;;;;;;;13.82;7.72;;;32.40;54.50;;;;;;4704477;30;20084;-81
2021/08/13 10:52:33;;;;;;;11.15;5.88;;;32.40;54.10;;;;;;4747621;30;20062;-81
2021/08/13 10:54:59;;;;;;;14.55;6.00;;;32.40;54.60;;;;;;4717658;30;20316;-83
2021/08/13 10:57:47;;;;;;;16.55;6.20;;;32.40;55.60;;;;;;4732908;30;20024;-82
2021/08/13 11:00:13;;;;;;;17.30;6.30;;;32.40;56.60;;;;;;4732603;30;20103;-82
2021/08/13 11:02:41;;;;;;;11.80;6.85;;;32.40;55.40;;;;;;4732535;30;20320;-82
2021/08/13 11:05:07;;;;;;;20.23;6.53;;;32.60;54.40;;;;;;4718577;30;20035;-83
2021/08/13 11:08:00;;;;;;;20.63;7.10;;;32.60;55.00;;;;;;4733584;30;20154;-83
2021/08/13 11:10:54;;;;;;;17.95;6.15;;;32.80;56.10;;;;;;4720280;30;20040;-83
2021/08/13 11:13:21;;;;;;;12.70;6.85;;;32.80;55.10;;;;;;4732488;30;20223;-83
2021/08/13 11:15:52;;;;;;;14.65;6.55;;;32.70;54.90;;;;;;4731264;30;20028;-82
2021/08/13 11:18:34;;;;;;;19.10;6.38;;;32.70;55.20;;;;;;4715731;30;20079;-83
2021/08/13 11:21:04;;;;;;;9.73;6.57;;;32.70;57.00;;;;;;4716201;30;20040;-83
2021/08/13 11:23:32;;;;;;;13.77;6.43;;;32.70;53.40;;;;;;4716201;30;20111;-82
2021/08/13 11:25:59;;;;;;;11.80;6.45;;;32.60;54.50;;;;;;4715693;30;20033;-83
2021/08/13 11:28:30;;;;;;;10.63;6.60;;;32.60;55.80;;;;;;4715324;30;20033;-81
2021/08/13 11:31:00;;;;;;;14.63;6.18;;;32.90;57.20;;;;;;4719964;30;20289;-81
2021/08/13 11:33:29;;;;;;;19.63;6.00;;;33.00;55.10;;;;;;4737725;30;20029;-81
2021/08/13 11:35:58;;;;;;;14.38;6.43;;;33.20;55.40;;;;;;4718546;30;20096;-81
2021/08/13 11:38:47;;;;;;;11.32;6.28;;;33.40;53.50;;;;;;4732444;30;20120;-82
2021/08/13 11:41:21;;;;;;;23.65;7.30;;;33.30;57.00;;;;;;4693390;30;20034;-82
2021/08/13 11:43:49;;;;;;;9.48;6.60;;;33.30;53.70;;;;;;4693493;30;20360;-82
2021/08/13 11:46:26;;;;;;;11.77;6.60;;;33.30;54.70;;;;;;4685167;30;20113;-82
2021/08/13 11:49:00;;;;;;;14.65;7.47;;;33.50;53.70;;;;;;4696644;30;20388;-82
2021/08/13 11:51:27;;;;;;;11.40;6.53;;;33.60;54.70;;;;;;4711003;30;20105;-83
2021/08/13 11:53:54;;;;;;;13.07;6.45;;;33.90;54.10;;;;;;4696497;30;20037;-82
2021/08/13 11:56:31;;;;;;;15.32;6.40;;;34.00;53.70;;;;;;4710932;30;20036;-82
2021/08/13 11:59:06;;;;;;;13.77;7.30;;;33.90;54.90;;;;;;4679009;30;20068;-82
2021/08/13 12:01:54;;;;;;;9.80;6.28;;;33.90;54.40;;;;;;4678893;30;20115;-83
2021/08/13 12:04:24;;;;;;;12.98;6.45;;;34.00;52.40;;;;;;4696063;30;20042;-82
2021/08/13 12:07:08;;;;;;;18.23;6.20;;;34.00;53.00;;;;;;4710712;30;20317;-82
2021/08/13 12:09:43;;;;;;;14.25;6.43;;;34.10;51.90;;;;;;4675674;30;20038;-83
2021/08/13 12:12:15;;;;;;;13.27;6.55;;;34.00;53.50;;;;;;4664429;30;20042;-82
2021/08/13 12:14:55;;;;;;;15.73;6.93;;;34.10;53.80;;;;;;4662310;30;20131;-82
2021/08/13 12:17:20;;;;;;;10.63;6.22;;;34.10;50.90;;;;;;4673235;30;20094;-83
2021/08/13 12:19:55;;;;;;;13.02;5.90;;;34.00;52.80;;;;;;4717442;30;20802;-82
2021/08/13 12:22:48;;;;;;;15.38;6.75;;;34.00;53.40;;;;;;4733771;30;20043;-82
2021/08/13 12:25:14;;;;;;;9.93;6.45;;;34.00;52.00;;;;;;4695554;30;20037;-82
2021/08/13 12:27:43;;;;;;;16.40;7.00;;;33.90;52.10;;;;;;4672920;30;20069;-82
2021/08/13 12:30:15;;;;;;;13.98;6.35;;;33.80;52.70;;;;;;4664073;30;20088;-82
2021/08/13 12:32:42;;;;;;;9.23;6.45;;;33.60;53.50;;;;;;4663666;30;20111;-82
2021/08/13 12:35:11;;;;;;;8.55;6.10;;;33.70;52.60;;;;;;4663866;30;20096;-81
2021/08/13 12:37:39;;;;;;;11.85;6.45;;;33.70;52.60;;;;;;4664036;30;20286;-82
2021/08/13 12:40:08;;;;;;;12.48;5.80;;;33.60;50.70;;;;;;4663928;30;20041;-82
2021/08/13 12:42:34;;;;;;;27.77;8.13;;;33.60;49.90;;;;;;4663653;30;20042;-82
2021/08/13 12:45:01;;;;;;;8.85;5.97;;;33.40;51.80;;;;;;4678771;30;20121;-82
2021/08/13 12:47:28;;;;;;;10.93;6.40;;;33.30;50.60;;;;;;4677363;30;20376;-82
2021/08/13 12:49:54;;;;;;;9.30;6.10;;;33.20;52.00;;;;;;4695689;30;20130;-82
2021/08/13 12:52:24;;;;;;;9.35;6.72;;;33.30;51.10;;;;;;4681110;30;20029;-82
2021/08/13 12:54:53;;;;;;;9.10;6.40;;;33.20;52.50;;;;;;4695320;30;20030;-82
2021/08/13 12:57:20;;;;;;;15.35;5.95;;;33.00;51.50;;;;;;4695305;30;20029;-82
2021/08/13 13:00:02;;;;;;;9.90;6.43;;;32.90;53.00;;;;;;4695739;30;20029;-82
2021/08/13 13:02:29;;;;;;;9.18;6.18;;;32.90;52.80;;;;;;4732710;30;20044;-82
2021/08/13 13:05:02;;;;;;;15.23;6.55;;;33.10;53.40;;;;;;4726263;30;20062;-82
2021/08/13 13:07:40;;;;;;;11.65;6.30;;;32.90;54.50;;;;;;4730089;30;20137;-81
2021/08/13 13:10:21;;;;;;;15.88;6.85;;;32.80;54.40;;;;;;4730714;30;20063;-82
2021/08/13 13:12:48;;;;;;;10.30;6.75;;;32.70;52.70;;;;;;4729530;30;20029;-82
2021/08/13 13:15:29;;;;;;;17.10;7.32;;;32.80;53.00;;;;;;4730864;30;20029;-82
2021/08/13 13:18:02;;;;;;;16.92;6.70;;;32.90;52.50;;;;;;4747472;30;20066;-81
2021/08/13 13:20:40;;;;;;;11.13;6.07;;;32.90;51.90;;;;;;4747893;30;20036;-81
2021/08/13 13:23:19;;;;;;;11.27;6.32;;;33.10;51.70;;;;;;4734741;30;20036;-82
2021/08/13 13:26:12;;;;;;;11.70;6.47;;;33.40;52.50;;;;;;4747161;30;20112;-81
2021/08/13 13:28:50;;;;;;;15.63;6.50;;;33.60;51.70;;;;;;4740155;30;20029;-81
2021/08/13 13:31:41;;;;;;;16.52;6.65;;;33.70;50.60;;;;;;4747901;30;20227;-79
2021/08/13 13:34:27;;;;;;;10.52;6.32;;;33.90;51.90;;;;;;4692194;30;20130;-79
2021/08/13 13:37:15;;;;;;;10.40;6.30;;;34.00;51.50;;;;;;4692567;30;20038;-79
2021/08/13 13:39:43;;;;;;;27.30;6.97;;;34.10;49.80;;;;;;4693516;30;20290;-82
2021/08/13 13:42:09;;;;;;;11.23;7.25;;;34.20;49.80;;;;;;4704574;30;20040;-83
2021/08/13 13:44:36;;;;;;;12.50;6.35;;;34.00;50.10;;;;;;4709097;30;20218;-82
2021/08/13 13:47:05;;;;;;;13.88;7.15;;;34.00;51.70;;;;;;4721736;30;20112;-82
2021/08/13 13:49:31;;;;;;;11.93;6.27;;;34.00;51.10;;;;;;4696129;30;20236;-82
2021/08/13 13:51:57;;;;;;;10.70;6.75;;;34.00;51.90;;;;;;4705597;30;20216;-82
2021/08/13 13:54:23;;;;;;;17.67;6.60;;;34.20;51.40;;;;;;4722928;30;20033;-82
2021/08/13 13:56:50;;;;;;;11.63;6.18;;;34.40;50.30;;;;;;4694388;30;20042;-82
2021/08/13 13:59:16;;;;;;;13.85;6.93;;;34.50;53.30;;;;;;4686489;30;20061;-83
2021/08/13 14:01:42;;;;;;;12.93;6.10;;;34.70;52.50;;;;;;4679572;30;20557;-83
2021/08/13 14:04:08;;;;;;;7.95;6.47;;;34.70;49.70;;;;;;4679777;30;20032;-83
2021/08/13 14:06:34;;;;;;;10.25;6.57;;;34.50;50.40;;;;;;4694012;30;20034;-83
2021/08/13 14:09:00;;;;;;;9.50;6.07;;;34.60;51.10;;;;;;4679926;30;20116;-82
2021/08/13 14:11:26;;;;;;;9.97;6.53;;;34.50;50.30;;;;;;4704737;30;20071;-83
2021/08/13 14:13:52;;;;;;;7.53;6.07;;;34.50;50.90;;;;;;4729591;30;20291;-83
2021/08/13 14:16:18;;;;;;;13.13;6.80;;;34.40;49.40;;;;;;4734329;30;20059;-83
2021/08/13 14:18:44;;;;;;;9.05;7.20;;;34.40;50.00;;;;;;4747333;30;20223;-83
2021/08/13 14:21:10;;;;;;;13.32;6.97;;;34.30;50.10;;;;;;4747411;30;20039;-83
2021/08/13 14:23:35;;;;;;;10.97;6.57;;;34.30;49.90;;;;;;4763860;30;20111;-83
2021/08/13 14:26:02;;;;;;;16.53;6.33;;;34.40;49.30;;;;;;4750199;30;20039;-82
2021/08/13 14:28:30;;;;;;;12.38;6.82;;;34.50;50.10;;;;;;4764874;30;20134;-82
2021/08/13 14:30:58;;;;;;;;;;;34.50;50.00;;;;;;4750285;30;20043;-82
2021/08/13 14:33:24;;;;;;;13.02;6.47;;;34.50;50.60;;;;;;4750930;30;19973;-81
2021/08/13 14:35:49;;;;;;;8.90;7.13;;;34.60;50.10;;;;;;4765303;30;20024;-82
2021/08/13 14:38:15;;;;;;;8.68;6.40;;;34.60;51.30;;;;;;4749702;30;20032;-82
2021/08/13 14:40:41;;;;;;;10.03;6.90;;;34.60;49.30;;;;;;4750600;30;20036;-83
2021/08/13 14:43:07;;;;;;;11.03;7.20;;;34.60;49.70;;;;;;4762220;30;20031;-82
2021/08/13 14:45:33;;;;;;;13.07;6.30;;;34.60;51.00;;;;;;4748996;30;20231;-82
2021/08/13 14:47:59;;;;;;;12.18;6.30;;;34.70;49.30;;;;;;4735164;30;20293;-82
2021/08/13 14:50:26;;;;;;;11.95;6.18;;;34.70;48.70;;;;;;4735002;30;20068;-82
2021/08/13 14:52:55;;;;;;;14.23;6.68;;;34.60;48.40;;;;;;4749847;30;20032;-83
2021/08/13 14:55:25;;;;;;;10.32;7.55;;;34.50;48.70;;;;;;4748759;30;20228;-83
2021/08/13 14:57:51;;;;;;;16.25;6.95;;;34.50;48.50;;;;;;4735340;30;20028;-83
2021/08/13 15:00:17;;;;;;;7.93;5.65;;;34.70;48.40;;;;;;4735954;30;20040;-82
2021/08/13 15:02:43;;;;;;;10.60;7.35;;;34.70;47.80;;;;;;4750762;30;20214;-83
2021/08/13 15:05:09;;;;;;;12.77;6.55;;;34.80;48.00;;;;;;4735839;30;20040;-82
2021/08/13 15:07:36;;;;;;;8.13;6.50;;;34.90;49.00;;;;;;4747228;30;20040;-82
2021/08/13 15:10:05;;;;;;;10.38;6.28;;;34.80;47.80;;;;;;4734030;30;20047;-82
2021/08/13 15:12:32;;;;;;;8.95;6.05;;;34.70;49.50;;;;;;4749385;30;20095;-82
2021/08/13 15:14:58;;;;;;;8.83;5.83;;;34.50;49.80;;;;;;4735060;30;20036;-81
2021/08/13 15:17:24;;;;;;;8.83;6.13;;;34.50;48.60;;;;;;4739447;30;20108;-82
2021/08/13 15:19:49;;;;;;;8.53;7.03;;;34.50;50.20;;;;;;4749188;30;20062;-81
2021/08/13 15:22:17;;;;;;;11.82;6.40;;;34.50;50.00;;;;;;4746276;30;20330;-82
2021/08/13 15:24:43;;;;;;;13.75;7.97;;;34.50;49.90;;;;;;4752988;30;20174;-81
2021/08/13 15:27:09;;;;;;;13.00;6.83;;;34.60;50.50;;;;;;4749644;30;20028;-81
2021/08/13 15:29:35;;;;;;;9.65;6.05;;;34.50;48.60;;;;;;4749535;30;20050;-82
2021/08/13 15:32:00;;;;;;;10.13;6.67;;;34.40;49.30;;;;;;4731308;30;20027;-81
2021/08/13 15:34:26;;;;;;;12.70;6.90;;;34.40;49.40;;;;;;4772871;30;20028;-82
2021/08/13 15:36:52;;;;;;;10.80;6.30;;;34.20;49.80;;;;;;4734883;30;20362;-81